ABY132 OMSJ-OTHH
Flight info
| Callsign | ABY132 |
|---|---|
| Flight time | 0h 41m |
| Altitude | 20000 |
| Route | NABIX P699 OXARI M430 TOSNA |
| Aircraft | A21N/M-SDE2E3FGHIRWXY/LB1 |
Departure
| Time | 2026-05-06 18:52 |
|---|---|
| Airport | Sharjah International Airport (OMSJ) |
Arrival
| Time | 2026-05-06 19:33 |
|---|---|
| Airport | Hamad International Airport (OTHH) |
| Time | Latitude | Longitude | Altitude | Speed | Heading |
|---|---|---|---|---|---|
| 2026-05-06 18:23 | 25.32195 | 55.52260 | 121 ft | 0 kts | 212° |
| 2026-05-06 18:42 | 25.32196 | 55.52261 | 120 ft | 2 kts | 212° |
| 2026-05-06 18:42 | 25.32217 | 55.52275 | 116 ft | 4 kts | 210° |
| 2026-05-06 18:42 | 25.32241 | 55.52290 | 116 ft | 5 kts | 207° |
| 2026-05-06 18:42 | 25.32265 | 55.52303 | 117 ft | 5 kts | 203° |
| 2026-05-06 18:43 | 25.32290 | 55.52313 | 117 ft | 5 kts | 193° |
| 2026-05-06 18:43 | 25.32315 | 55.52315 | 117 ft | 6 kts | 159° |
| 2026-05-06 18:43 | 25.32325 | 55.52308 | 119 ft | 1 kts | 122° |
| 2026-05-06 18:46 | 25.32324 | 55.52311 | 118 ft | 2 kts | 122° |
| 2026-05-06 18:46 | 25.32314 | 55.52329 | 116 ft | 4 kts | 122° |
| 2026-05-06 18:46 | 25.32297 | 55.52357 | 118 ft | 5 kts | 122° |
| 2026-05-06 18:47 | 25.32273 | 55.52398 | 119 ft | 7 kts | 122° |
| 2026-05-06 18:47 | 25.32243 | 55.52450 | 119 ft | 9 kts | 122° |
| 2026-05-06 18:47 | 25.32206 | 55.52515 | 118 ft | 11 kts | 122° |
| 2026-05-06 18:47 | 25.32163 | 55.52592 | 118 ft | 13 kts | 123° |
| 2026-05-06 18:48 | 25.32112 | 55.52678 | 119 ft | 14 kts | 122° |
| 2026-05-06 18:48 | 25.32056 | 55.52776 | 119 ft | 16 kts | 122° |
| 2026-05-06 18:48 | 25.31995 | 55.52883 | 118 ft | 17 kts | 122° |
| 2026-05-06 18:48 | 25.31928 | 55.52998 | 119 ft | 18 kts | 122° |
| 2026-05-06 18:49 | 25.31889 | 55.53066 | 118 ft | 8 kts | 122° |
| 2026-05-06 18:49 | 25.31855 | 55.53127 | 118 ft | 10 kts | 122° |
| 2026-05-06 18:49 | 25.31813 | 55.53201 | 119 ft | 12 kts | 122° |
| 2026-05-06 18:49 | 25.31786 | 55.53297 | 118 ft | 14 kts | 97° |
| 2026-05-06 18:50 | 25.31798 | 55.53363 | 117 ft | 10 kts | 46° |
| 2026-05-06 18:50 | 25.31861 | 55.53407 | 121 ft | 12 kts | 32° |
| 2026-05-06 18:50 | 25.31938 | 55.53459 | 119 ft | 14 kts | 32° |
| 2026-05-06 18:50 | 25.32027 | 55.53519 | 122 ft | 16 kts | 27° |
| 2026-05-06 18:51 | 25.32104 | 55.53501 | 120 ft | 4 kts | 304° |
| 2026-05-06 18:51 | 25.32126 | 55.53461 | 120 ft | 17 kts | 302° |
| 2026-05-06 18:51 | 25.32332 | 55.53102 | 124 ft | 92 kts | 302° |
| 2026-05-06 18:51 | 25.32797 | 55.52294 | 118 ft | 155 kts | 302° |
| 2026-05-06 18:52 | 25.33449 | 55.51156 | 204 ft | 192 kts | 302° |
| 2026-05-06 18:52 | 25.34158 | 55.49897 | 790 ft | 194 kts | 301° |
| 2026-05-06 18:52 | 25.34859 | 55.48637 | 1540 ft | 191 kts | 301° |
| 2026-05-06 18:52 | 25.35587 | 55.47345 | 1980 ft | 212 kts | 301° |
| 2026-05-06 18:53 | 25.36431 | 55.45853 | 1891 ft | 239 kts | 302° |
| 2026-05-06 18:53 | 25.37327 | 55.44291 | 1944 ft | 241 kts | 301° |
| 2026-05-06 18:53 | 25.38194 | 55.42752 | 2108 ft | 244 kts | 301° |
| 2026-05-06 18:53 | 25.39128 | 55.41134 | 2661 ft | 242 kts | 302° |
| 2026-05-06 18:54 | 25.40049 | 55.39555 | 3088 ft | 248 kts | 302° |
| 2026-05-06 18:54 | 25.40996 | 55.37954 | 3834 ft | 246 kts | 302° |
| 2026-05-06 18:54 | 25.41934 | 55.36377 | 4480 ft | 245 kts | 302° |
| 2026-05-06 18:54 | 25.42858 | 55.34816 | 4804 ft | 246 kts | 302° |
| 2026-05-06 18:55 | 25.43807 | 55.33208 | 4936 ft | 247 kts | 302° |
| 2026-05-06 18:55 | 25.44700 | 55.31510 | 4982 ft | 270 kts | 288° |
| 2026-05-06 18:55 | 25.44879 | 55.29422 | 4999 ft | 276 kts | 258° |
| 2026-05-06 18:55 | 25.44333 | 55.27422 | 5006 ft | 276 kts | 249° |
| 2026-05-06 18:56 | 25.43658 | 55.25435 | 5025 ft | 274 kts | 248° |
| 2026-05-06 18:56 | 25.42998 | 55.23447 | 5557 ft | 276 kts | 249° |
| 2026-05-06 18:56 | 25.42350 | 55.21437 | 6271 ft | 279 kts | 249° |
| 2026-05-06 18:56 | 25.41708 | 55.19405 | 6945 ft | 282 kts | 249° |
| 2026-05-06 18:57 | 25.41061 | 55.17336 | 7613 ft | 286 kts | 250° |
| 2026-05-06 18:57 | 25.40411 | 55.15240 | 8276 ft | 291 kts | 250° |
| 2026-05-06 18:57 | 25.39751 | 55.13103 | 8934 ft | 297 kts | 251° |
| 2026-05-06 18:57 | 25.39080 | 55.10925 | 9639 ft | 301 kts | 251° |
| 2026-05-06 18:58 | 25.38398 | 55.08714 | 10216 ft | 309 kts | 252° |
| 2026-05-06 18:58 | 25.37921 | 55.07168 | 10447 ft | 321 kts | 252° |
| 2026-05-06 18:58 | 25.37177 | 55.04758 | 10723 ft | 340 kts | 252° |
| 2026-05-06 18:58 | 25.36394 | 55.02215 | 10979 ft | 359 kts | 252° |
| 2026-05-06 18:59 | 25.35568 | 54.99534 | 11224 ft | 377 kts | 252° |
| 2026-05-06 18:59 | 25.34716 | 54.96729 | 11452 ft | 393 kts | 255° |
| 2026-05-06 18:59 | 25.34257 | 54.93743 | 11670 ft | 406 kts | 268° |
| 2026-05-06 18:59 | 25.34174 | 54.90597 | 12104 ft | 412 kts | 271° |
| 2026-05-06 19:00 | 25.34142 | 54.87420 | 12619 ft | 416 kts | 271° |
| 2026-05-06 19:00 | 25.34093 | 54.84212 | 13126 ft | 420 kts | 271° |
| 2026-05-06 19:00 | 25.34025 | 54.80970 | 13613 ft | 424 kts | 271° |
| 2026-05-06 19:00 | 25.33947 | 54.77690 | 14064 ft | 427 kts | 270° |
| 2026-05-06 19:01 | 25.33863 | 54.74399 | 14551 ft | 429 kts | 270° |
| 2026-05-06 19:01 | 25.33778 | 54.71102 | 15064 ft | 430 kts | 270° |
| 2026-05-06 19:01 | 25.33695 | 54.67796 | 15579 ft | 431 kts | 270° |
| 2026-05-06 19:01 | 25.33616 | 54.64483 | 16066 ft | 432 kts | 269° |
| 2026-05-06 19:02 | 25.33527 | 54.61151 | 16544 ft | 434 kts | 269° |
| 2026-05-06 19:02 | 25.33438 | 54.57813 | 17026 ft | 435 kts | 269° |
| 2026-05-06 19:02 | 25.33347 | 54.54505 | 17498 ft | 436 kts | 268° |
| 2026-05-06 19:02 | 25.33250 | 54.51159 | 17951 ft | 438 kts | 268° |
| 2026-05-06 19:03 | 25.33158 | 54.47770 | 18383 ft | 440 kts | 268° |
| 2026-05-06 19:03 | 25.33064 | 54.44386 | 18787 ft | 441 kts | 268° |
| 2026-05-06 19:03 | 25.32965 | 54.40994 | 19210 ft | 442 kts | 268° |
| 2026-05-06 19:03 | 25.32870 | 54.37597 | 19604 ft | 441 kts | 268° |
| 2026-05-06 19:04 | 25.32772 | 54.34205 | 19781 ft | 445 kts | 268° |
| 2026-05-06 19:04 | 25.32670 | 54.30735 | 19817 ft | 457 kts | 268° |
| 2026-05-06 19:04 | 25.32567 | 54.27221 | 19812 ft | 458 kts | 268° |
| 2026-05-06 19:04 | 25.32463 | 54.23705 | 19803 ft | 458 kts | 268° |
| 2026-05-06 19:05 | 25.32357 | 54.20194 | 19799 ft | 457 kts | 268° |
| 2026-05-06 19:05 | 25.32252 | 54.16680 | 19793 ft | 458 kts | 268° |
| 2026-05-06 19:05 | 25.32145 | 54.13157 | 19793 ft | 458 kts | 268° |
| 2026-05-06 19:05 | 25.32037 | 54.09640 | 19792 ft | 457 kts | 268° |
| 2026-05-06 19:06 | 25.31927 | 54.06133 | 19794 ft | 457 kts | 268° |
| 2026-05-06 19:06 | 25.31813 | 54.02611 | 19792 ft | 458 kts | 268° |
| 2026-05-06 19:06 | 25.31703 | 53.99097 | 19792 ft | 458 kts | 268° |
| 2026-05-06 19:06 | 25.31591 | 53.95575 | 19792 ft | 457 kts | 268° |
| 2026-05-06 19:07 | 25.31481 | 53.92110 | 19793 ft | 457 kts | 268° |
| 2026-05-06 19:07 | 25.31365 | 53.88589 | 19794 ft | 458 kts | 268° |
| 2026-05-06 19:07 | 25.31249 | 53.85067 | 19794 ft | 458 kts | 268° |
| 2026-05-06 19:07 | 25.31136 | 53.81557 | 19793 ft | 457 kts | 268° |
| 2026-05-06 19:08 | 25.31020 | 53.78042 | 19795 ft | 457 kts | 268° |
| 2026-05-06 19:08 | 25.30904 | 53.74532 | 19799 ft | 458 kts | 268° |
| 2026-05-06 19:08 | 25.30786 | 53.71015 | 19793 ft | 457 kts | 268° |
| 2026-05-06 19:08 | 25.30668 | 53.67514 | 19794 ft | 456 kts | 268° |
| 2026-05-06 19:09 | 25.30547 | 53.64017 | 19797 ft | 455 kts | 268° |
| 2026-05-06 19:09 | 25.30427 | 53.60519 | 19799 ft | 455 kts | 268° |
| 2026-05-06 19:09 | 25.30310 | 53.57056 | 19797 ft | 456 kts | 268° |
| 2026-05-06 19:09 | 25.30188 | 53.53557 | 19800 ft | 456 kts | 267° |
| 2026-05-06 19:10 | 25.30065 | 53.50068 | 19803 ft | 454 kts | 267° |
| 2026-05-06 19:10 | 25.29943 | 53.46572 | 19799 ft | 455 kts | 267° |
| 2026-05-06 19:10 | 25.29819 | 53.43068 | 19799 ft | 456 kts | 268° |
| 2026-05-06 19:10 | 25.29695 | 53.39562 | 19798 ft | 456 kts | 267° |
| 2026-05-06 19:11 | 25.29571 | 53.36075 | 19796 ft | 454 kts | 267° |
| 2026-05-06 19:11 | 25.29443 | 53.32578 | 19796 ft | 455 kts | 267° |
| 2026-05-06 19:11 | 25.29315 | 53.29079 | 19794 ft | 457 kts | 267° |
| 2026-05-06 19:11 | 25.29190 | 53.25581 | 19794 ft | 456 kts | 267° |
| 2026-05-06 19:12 | 25.29059 | 53.22074 | 19796 ft | 455 kts | 267° |
| 2026-05-06 19:12 | 25.28923 | 53.18578 | 19797 ft | 456 kts | 267° |
| 2026-05-06 19:12 | 25.28791 | 53.15074 | 19797 ft | 457 kts | 267° |
| 2026-05-06 19:12 | 25.28662 | 53.11564 | 19800 ft | 456 kts | 267° |
| 2026-05-06 19:13 | 25.28534 | 53.08108 | 19802 ft | 455 kts | 267° |
| 2026-05-06 19:13 | 25.28403 | 53.04616 | 19802 ft | 456 kts | 267° |
| 2026-05-06 19:13 | 25.28269 | 53.01112 | 19803 ft | 456 kts | 267° |
| 2026-05-06 19:13 | 25.28136 | 52.97605 | 19805 ft | 456 kts | 267° |
| 2026-05-06 19:14 | 25.28003 | 52.94107 | 19802 ft | 455 kts | 267° |
| 2026-05-06 19:14 | 25.27867 | 52.90612 | 19805 ft | 455 kts | 267° |
| 2026-05-06 19:14 | 25.27727 | 52.87114 | 19804 ft | 457 kts | 267° |
| 2026-05-06 19:14 | 25.27579 | 52.83615 | 19804 ft | 456 kts | 267° |
| 2026-05-06 19:15 | 25.27436 | 52.80115 | 19807 ft | 455 kts | 267° |
| 2026-05-06 19:15 | 25.27294 | 52.76619 | 19806 ft | 456 kts | 267° |
| 2026-05-06 19:15 | 25.27136 | 52.73115 | 19805 ft | 457 kts | 265° |
| 2026-05-06 19:15 | 25.26601 | 52.69666 | 19812 ft | 455 kts | 254° |
| 2026-05-06 19:16 | 25.25456 | 52.66430 | 19804 ft | 452 kts | 243° |
| 2026-05-06 19:16 | 25.23795 | 52.63467 | 19810 ft | 455 kts | 236° |
| 2026-05-06 19:16 | 25.22033 | 52.60640 | 19688 ft | 447 kts | 235° |
| 2026-05-06 19:16 | 25.20289 | 52.57847 | 19341 ft | 437 kts | 235° |
| 2026-05-06 19:17 | 25.18591 | 52.55113 | 18749 ft | 429 kts | 235° |
| 2026-05-06 19:17 | 25.16909 | 52.52393 | 17930 ft | 428 kts | 235° |
| 2026-05-06 19:17 | 25.15228 | 52.49668 | 17048 ft | 428 kts | 236° |
| 2026-05-06 19:17 | 25.13552 | 52.46950 | 16367 ft | 428 kts | 236° |
| 2026-05-06 19:18 | 25.11690 | 52.44390 | 15840 ft | 428 kts | 227° |
| 2026-05-06 19:18 | 25.09465 | 52.42230 | 15354 ft | 426 kts | 217° |
| 2026-05-06 19:18 | 25.07072 | 52.40290 | 14910 ft | 427 kts | 216° |
| 2026-05-06 19:18 | 25.04663 | 52.38378 | 14466 ft | 427 kts | 216° |
| 2026-05-06 19:19 | 25.02290 | 52.36486 | 14037 ft | 424 kts | 216° |
| 2026-05-06 19:19 | 24.99910 | 52.34577 | 13599 ft | 422 kts | 216° |
| 2026-05-06 19:19 | 24.97550 | 52.32674 | 13124 ft | 420 kts | 216° |
| 2026-05-06 19:19 | 24.95262 | 52.30829 | 12662 ft | 418 kts | 217° |
| 2026-05-06 19:20 | 24.92878 | 52.28852 | 12182 ft | 415 kts | 220° |
| 2026-05-06 19:20 | 24.90946 | 52.26535 | 11716 ft | 407 kts | 237° |
| 2026-05-06 19:20 | 24.89726 | 52.23811 | 11478 ft | 389 kts | 253° |
| 2026-05-06 19:20 | 24.89213 | 52.20968 | 11331 ft | 370 kts | 266° |
| 2026-05-06 19:21 | 24.89020 | 52.18200 | 11177 ft | 356 kts | 269° |
| 2026-05-06 19:21 | 24.88861 | 52.15492 | 10669 ft | 354 kts | 268° |
| 2026-05-06 19:21 | 24.88686 | 52.12779 | 10048 ft | 357 kts | 268° |
| 2026-05-06 19:21 | 24.88499 | 52.10045 | 9403 ft | 359 kts | 268° |
| 2026-05-06 19:22 | 24.88306 | 52.07324 | 8804 ft | 352 kts | 267° |
| 2026-05-06 19:22 | 24.88116 | 52.04713 | 8290 ft | 342 kts | 267° |
| 2026-05-06 19:22 | 24.87926 | 52.02134 | 7906 ft | 335 kts | 267° |
| 2026-05-06 19:22 | 24.87738 | 51.99601 | 7628 ft | 327 kts | 267° |
| 2026-05-06 19:23 | 24.87555 | 51.97134 | 7378 ft | 319 kts | 267° |
| 2026-05-06 19:23 | 24.87376 | 51.94725 | 7138 ft | 312 kts | 266° |
| 2026-05-06 19:23 | 24.87196 | 51.92357 | 6840 ft | 306 kts | 266° |
| 2026-05-06 19:23 | 24.87023 | 51.90056 | 6505 ft | 298 kts | 267° |
| 2026-05-06 19:24 | 24.86852 | 51.87781 | 6164 ft | 299 kts | 266° |
| 2026-05-06 19:24 | 24.86684 | 51.85510 | 5804 ft | 295 kts | 266° |
| 2026-05-06 19:24 | 24.86744 | 51.83292 | 5448 ft | 286 kts | 286° |
| 2026-05-06 19:24 | 24.87478 | 51.81314 | 5057 ft | 282 kts | 301° |
| 2026-05-06 19:25 | 24.88421 | 51.79513 | 4646 ft | 284 kts | 303° |
| 2026-05-06 19:25 | 24.89608 | 51.77799 | 4289 ft | 279 kts | 320° |
| 2026-05-06 19:25 | 24.91198 | 51.76673 | 4121 ft | 266 kts | 337° |
| 2026-05-06 19:25 | 24.92849 | 51.75857 | 4001 ft | 254 kts | 339° |
| 2026-05-06 19:26 | 24.94440 | 51.75092 | 3862 ft | 246 kts | 338° |
| 2026-05-06 19:26 | 24.96057 | 51.74305 | 3569 ft | 261 kts | 339° |
| 2026-05-06 19:26 | 24.97721 | 51.73483 | 3484 ft | 263 kts | 338° |
| 2026-05-06 19:26 | 24.99386 | 51.72649 | 3480 ft | 262 kts | 337° |
| 2026-05-06 19:27 | 25.01036 | 51.71811 | 3482 ft | 258 kts | 338° |
| 2026-05-06 19:27 | 25.02617 | 51.71008 | 3471 ft | 240 kts | 336° |
| 2026-05-06 19:27 | 25.04059 | 51.70277 | 3459 ft | 221 kts | 338° |
| 2026-05-06 19:27 | 25.05444 | 51.69574 | 3469 ft | 218 kts | 337° |
| 2026-05-06 19:28 | 25.06823 | 51.68890 | 3482 ft | 213 kts | 339° |
| 2026-05-06 19:28 | 25.08116 | 51.68254 | 3433 ft | 197 kts | 339° |
| 2026-05-06 19:28 | 25.09374 | 51.67682 | 3248 ft | 195 kts | 340° |
| 2026-05-06 19:28 | 25.10633 | 51.67123 | 3017 ft | 195 kts | 341° |
| 2026-05-06 19:29 | 25.11888 | 51.66569 | 2765 ft | 193 kts | 340° |
| 2026-05-06 19:29 | 25.13104 | 51.66032 | 2536 ft | 181 kts | 340° |
| 2026-05-06 19:29 | 25.14220 | 51.65539 | 2302 ft | 168 kts | 339° |
| 2026-05-06 19:29 | 25.15299 | 51.65064 | 2083 ft | 166 kts | 339° |
| 2026-05-06 19:30 | 25.16356 | 51.64597 | 1877 ft | 161 kts | 340° |
| 2026-05-06 19:30 | 25.17352 | 51.64157 | 1689 ft | 141 kts | 339° |
| 2026-05-06 19:30 | 25.18223 | 51.63773 | 1498 ft | 133 kts | 339° |
| 2026-05-06 19:30 | 25.19074 | 51.63398 | 1341 ft | 131 kts | 338° |
| 2026-05-06 19:31 | 25.19917 | 51.63027 | 1185 ft | 130 kts | 338° |
| 2026-05-06 19:31 | 25.20752 | 51.62657 | 1004 ft | 129 kts | 338° |
| 2026-05-06 19:31 | 25.22415 | 51.61919 | 723 ft | 128 kts | 338° |
| 2026-05-06 19:32 | 25.23245 | 51.61554 | 563 ft | 128 kts | 339° |
| 2026-05-06 19:32 | 25.24065 | 51.61187 | 384 ft | 129 kts | 339° |
| 2026-05-06 19:32 | 25.24897 | 51.60823 | 222 ft | 129 kts | 339° |
| 2026-05-06 19:32 | 25.25728 | 51.60457 | 42 ft | 126 kts | 339° |
| 2026-05-06 19:33 | 25.26472 | 51.60132 | 32 ft | 97 kts | 338° |
| 2026-05-06 19:33 | 25.26919 | 51.59935 | 30 ft | 50 kts | 339° |
| 2026-05-06 19:33 | 25.27196 | 51.59826 | 31 ft | 26 kts | 351° |
| 2026-05-06 19:33 | 25.27351 | 51.59827 | 32 ft | 10 kts | 7° |
| 2026-05-06 19:34 | 25.27419 | 51.59856 | 33 ft | 12 kts | 65° |
| 2026-05-06 19:34 | 25.27381 | 51.59933 | 34 ft | 14 kts | 159° |
| 2026-05-06 19:34 | 25.27282 | 51.59977 | 34 ft | 16 kts | 158° |
| 2026-05-06 19:34 | 25.27171 | 51.60025 | 34 ft | 18 kts | 157° |
| 2026-05-06 19:35 | 25.27053 | 51.60078 | 34 ft | 19 kts | 158° |
| 2026-05-06 19:35 | 25.26924 | 51.60134 | 34 ft | 18 kts | 158° |
| 2026-05-06 19:35 | 25.26884 | 51.60152 | 33 ft | 7 kts | 157° |
| 2026-05-06 19:35 | 25.26766 | 51.60204 | 33 ft | 22 kts | 158° |
| 2026-05-06 19:36 | 25.26620 | 51.60268 | 34 ft | 23 kts | 158° |
| 2026-05-06 19:36 | 25.26465 | 51.60336 | 34 ft | 24 kts | 158° |
| 2026-05-06 19:36 | 25.26305 | 51.60407 | 35 ft | 25 kts | 158° |
| 2026-05-06 19:36 | 25.26170 | 51.60466 | 35 ft | 20 kts | 158° |
| 2026-05-06 19:37 | 25.26061 | 51.60521 | 35 ft | 13 kts | 131° |
| 2026-05-06 19:37 | 25.26068 | 51.60620 | 35 ft | 14 kts | 68° |
| 2026-05-06 19:37 | 25.26106 | 51.60725 | 35 ft | 15 kts | 66° |
| 2026-05-06 19:37 | 25.26133 | 51.60798 | 35 ft | 16 kts | 67° |
| 2026-05-06 19:38 | 25.26104 | 51.60880 | 35 ft | 10 kts | 148° |
| 2026-05-06 19:38 | 25.26065 | 51.60907 | 35 ft | 2 kts | 148° |
| 2026-05-06 19:38 | 25.26064 | 51.60908 | 35 ft | 0 kts | 148° |